Latest Weather Observations for Mudgee

IDN60801

Issued at 7:03 pm EST Monday 29 August 2016 (issued every 30 minutes, with the page automatically refreshed every 10 minutes)

About weather observations | Map of weather stations | Latest weather observations for NSW | Other Formats
Station Details ID: 062101 Name: MUDGEE AIRPORT AWS Lat: -32.56 Lon: 149.61 Height: 471.0 m
Data from the previous 72 hours. | See also: Recent months at Mudgee
Date/Time
EST
Temp
°C
App
Temp
°C
Dew
Point
°C
Rel
Hum
%
Delta-T
°C
Wind Press
QNH
hPa
Press
MSL
hPa
Rain since
9am
mm
Dir  Spd
km/h
Gust
km/h
Spd
kts
Gust
kts
29/07:00pm 11.2 8.3 4.7 64 3.0 NE 9 11 5 6 1025.2 1025.7 0.0
29/06:30pm 12.5 9.8 5.7 63 3.2 NE 9 13 5 7 1024.9 1025.4 0.0
29/06:00pm 14.0 11.2 5.1 55 4.2 NE 9 11 5 6 1024.7 1025.2 0.0
29/05:30pm 14.9 11.7 4.9 51 4.8 ENE 11 13 6 7 1024.4 1024.9 0.0
29/05:00pm 14.6 11.8 6.9 60 3.8 NE 11 13 6 7 1024.5 1025.0 0.0
29/04:30pm 16.2 13.0 4.9 47 5.5 ENE 11 13 6 7 1024.5 1025.0 0.0
29/04:00pm 16.5 13.9 4.2 44 5.9 ENE 7 9 4 5 1024.4 1024.9 0.0
29/03:30pm 16.8 14.6 3.1 40 6.4 E 4 7 2 4 1024.0 1024.4 0.0
29/03:00pm 16.8 14.1 2.4 38 6.6 N 6 7 3 4 1024.1 1024.5 0.0
29/02:30pm 17.0 13.3 0.2 32 7.5 N 9 11 5 6 1024.5 1025.0 0.0
29/02:00pm 17.6 14.4 2.8 37 6.9 NNE 9 15 5 8 1024.5 1025.0 0.0
29/01:30pm 17.8 14.5 2.2 35 7.3 NNW 9 15 5 8 1024.4 1024.9 0.0
29/01:00pm 17.6 15.8 7.1 50 5.4 NW 6 11 3 6 1024.3 1024.8 0.0
29/12:30pm 16.4 14.1 5.7 49 5.3 SSW 7 9 4 5 1024.9 1025.4 0.0
29/12:00pm 15.8 13.1 5.7 51 4.9 SSW 9 13 5 7 1025.6 1026.1 0.0
29/11:30am 15.8 13.9 6.5 54 4.7 WNW 6 9 3 5 1025.6 1026.1 0.0
29/11:00am 14.7 12.3 5.2 53 4.6 SSE 7 15 4 8 1025.9 1026.4 0.0
29/10:30am 13.3 10.4 6.6 64 3.3 S 11 15 6 8 1026.3 1026.8 0.0
29/10:00am 11.3 9.1 6.0 70 2.5 S 7 11 4 6 1027.0 1027.5 0.0
29/09:30am 9.9 7.3 6.3 78 1.7 S 9 13 5 7 1027.0 1027.5 0.0
29/09:00am 8.4 5.8 6.0 85 1.1 SSE 9 13 5 7 1027.2 1027.7 0.0
29/08:30am 6.6 4.5 5.7 94 0.4 S 6 7 3 4 1027.3 1027.8 0.0
29/08:00am 5.0 2.5 4.7 98 0.1 S 7 11 4 6 1026.9 1027.4 0.0
29/07:30am 2.9 1.3 2.6 98 0.1 CALM 0 2 0 1 1026.4 1026.9 0.0
29/07:00am 0.8 -2.2 0.5 98 0.1 NE 6 7 3 4 1026.4 1026.9 0.0
29/06:30am -0.8 -3.3 -1.1 98 0.1 WNW 2 7 1 4 1026.3 1026.8 0.0
29/06:00am -0.2 -2.6 -0.5 98 0.1 W 2 6 1 3 1025.8 1026.3 0.0
29/05:30am -0.4 -3.6 -0.7 98 0.1 NE 6 9 3 5 1025.2 1025.7 0.0
29/05:00am -0.2 -3.4 -0.5 98 0.1 WNW 6 7 3 4 1025.2 1025.7 0.0
29/04:30am 0.9 -1.4 0.6 98 0.1 NE 2 7 1 4 1024.8 1025.3 0.0
29/04:00am 0.5 -1.5 0.2 98 0.1 CALM 0 0 0 0 1024.8 1025.3 0.0
29/03:30am 0.9 -1.0 0.6 98 0.1 CALM 0 0 0 0 1024.3 1024.8 0.0
29/03:00am 1.8 -0.7 1.5 98 0.1 ENE 4 7 2 4 1024.2 1024.7 0.0
29/02:30am 1.9 0.2 1.6 98 0.1 CALM 0 0 0 0 1024.5 1025.0 0.0
29/02:00am 2.2 -0.6 1.9 98 0.1 E 6 7 3 4 1024.2 1024.7 0.0
29/01:30am 1.4 -0.4 1.1 98 0.1 CALM 0 0 0 0 1024.7 1025.2 0.0
29/01:00am 1.8 0.0 1.5 98 0.1 CALM 0 0 0 0 1024.5 1025.0 0.0
29/12:30am 1.9 0.2 1.6 98 0.1 CALM 0 6 0 3 1024.7 1025.2 0.0
29/12:00am 2.6 -0.7 2.3 98 0.1 NE 9 9 5 5 1024.8 1025.3 0.0
 
Date/Time
EST
Temp
°C
App
Temp
°C
Dew
Point
°C
Rel
Hum
%
Delta-T
°C
Wind Press
QNH
hPa
Press
MSL
hPa
Rain since
9am
mm
Dir  Spd
km/h
Gust
km/h
Spd
kts
Gust
kts
28/11:30pm 3.0 1.1 2.7 98 0.1 E 2 6 1 3 1024.6 1025.1 0.0
28/11:00pm 3.5 2.0 3.1 97 0.2 CALM 0 0 0 0 1024.8 1025.3 0.0
28/10:30pm 3.6 0.0 3.2 97 0.2 NE 11 15 6 8 1024.7 1025.2 0.0
28/10:00pm 4.5 2.0 3.9 96 0.3 ENE 6 7 3 4 1025.0 1025.5 0.0
28/09:30pm 5.1 3.9 4.7 97 0.2 CALM 0 4 0 2 1024.9 1025.4 0.0
28/09:00pm 4.5 1.8 3.6 94 0.4 NE 7 11 4 6 1024.4 1024.9 0.0
28/08:30pm 5.1 1.4 4.5 96 0.3 NE 13 13 7 7 1024.3 1024.8 0.0
28/08:00pm 5.4 2.9 4.5 94 0.4 ENE 7 9 4 5 1024.0 1024.4 0.0
28/07:30pm 5.5 2.8 3.7 88 0.8 NE 7 9 4 5 1023.5 1024.0 0.0
28/07:00pm 8.7 6.1 4.1 73 2.1 N 7 9 4 5 1023.3 1023.8 0.0
28/06:30pm 10.5 8.5 4.4 66 2.8 NW 4 6 2 3 1023.1 1023.6 0.0
28/06:00pm 11.1 8.2 4.6 64 3.0 WNW 9 9 5 5 1022.8 1023.3 0.0
28/05:30pm 12.2 9.3 4.4 59 3.6 NW 9 11 5 6 1022.7 1023.2 0.0
28/05:00pm 14.1 10.3 4.1 51 4.7 WNW 13 19 7 10 1022.6 1023.1 0.0
28/04:30pm 14.8 10.6 3.9 48 5.1 WNW 15 20 8 11 1022.2 1022.6 0.0
28/04:00pm 15.0 10.8 3.8 47 5.2 WNW 15 20 8 11 1022.2 1022.6 0.0
28/03:30pm 15.2 11.0 4.0 47 5.3 WNW 15 20 8 11 1022.3 1022.7 0.0
28/03:00pm 15.3 11.5 4.1 47 5.3 W 13 20 7 11 1022.3 1022.7 0.0
28/02:30pm 15.0 10.7 3.5 46 5.4 WNW 15 24 8 13 1022.4 1022.9 0.0
28/02:00pm 14.6 11.6 4.3 50 4.9 WNW 9 20 5 11 1022.5 1023.0 0.0
28/01:30pm 14.4 10.4 2.6 45 5.4 W 13 17 7 9 1022.6 1023.1 0.0
28/01:00pm 13.7 10.3 3.8 51 4.6 WNW 11 15 6 8 1022.9 1023.4 0.0
28/12:30pm 13.5 10.7 3.3 50 4.7 WNW 7 15 4 8 1023.4 1023.9 0.0
28/12:00pm 13.7 11.1 4.0 52 4.5 W 7 15 4 8 1023.5 1024.0 0.0
28/11:30am 13.2 10.7 3.8 53 4.4 N 6 13 3 7 1024.2 1024.7 0.0
28/11:00am 12.1 9.6 4.8 61 3.4 WSW 7 19 4 10 1024.5 1025.0 0.0
28/10:30am 10.9 8.5 4.1 63 3.1 WNW 6 11 3 6 1025.0 1025.5 0.0
28/10:00am 9.6 7.1 5.0 73 2.1 NW 7 11 4 6 1025.3 1025.8 0.0
28/09:30am 7.7 5.3 4.5 80 1.4 N 6 7 3 4 1025.2 1025.7 0.0
28/09:00am 5.5 3.8 4.0 90 0.6 NNW 2 9 1 5 1025.6 1026.1 0.2
28/08:30am 2.8 0.8 2.4 97 0.2 SSW 2 7 1 4 1025.7 1026.2 0.2
28/08:00am 1.2 -1.4 0.8 97 0.2 S 4 7 2 4 1025.4 1025.9 0.2
28/07:30am -0.4 -3.8 -0.7 98 0.1 SE 7 11 4 6 1025.3 1025.8 0.2
28/07:00am -2.0 -5.1 -2.3 98 0.0 W 4 7 2 4 1025.0 1025.5 0.0
28/06:30am -2.5 -6.9 -2.8 98 0.0 NNE 11 13 6 7 1024.4 1024.9 0.0
28/06:00am -1.3 -3.9 -1.6 98 0.0 S 2 6 1 3 1024.1 1024.5 0.0
28/05:30am -2.0 -4.3 -2.3 98 0.0 CALM 0 0 0 0 1023.5 1024.0 0.0
28/05:00am -1.7 -5.7 -2.0 98 0.0 NE 9 11 5 6 1023.2 1023.7 0.0
28/04:30am -2.0 -4.3 -2.3 98 0.0 CALM 0 0 0 0 1023.6 1024.1 0.0
28/04:00am -1.0 -3.5 -1.3 98 0.1 SSE 2 7 1 4 1023.5 1024.0 0.0
28/03:30am -1.5 -3.7 -1.8 98 0.0 CALM 0 0 0 0 1023.4 1023.9 0.0
28/03:00am -1.7 -5.3 -2.0 98 0.0 NE 7 9 4 5 1023.2 1023.7 0.0
28/02:30am -1.2 -4.5 -1.6 97 0.1 NNE 6 7 3 4 1023.6 1024.1 0.0
28/02:00am -0.6 -2.7 -0.9 98 0.1 CALM 0 0 0 0 1023.5 1024.0 0.0
28/01:30am -0.4 -2.9 -0.8 97 0.1 E 2 6 1 3 1023.6 1024.1 0.0
28/01:00am -0.2 -3.4 -0.6 97 0.1 NE 6 9 3 5 1023.9 1024.3 0.0
28/12:30am -0.1 -3.3 -0.5 97 0.1 NNE 6 9 3 5 1023.9 1024.3 0.0
28/12:00am 0.5 -2.2 0.1 97 0.1 SSE 4 7 2 4 1023.9 1024.3 0.0
 
Date/Time
EST
Temp
°C
App
Temp
°C
Dew
Point
°C
Rel
Hum
%
Delta-T
°C
Wind Press
QNH
hPa
Press
MSL
hPa
Rain since
9am
mm
Dir  Spd
km/h
Gust
km/h
Spd
kts
Gust
kts
27/11:30pm 0.1 -3.6 -0.3 97 0.2 NNE 9 13 5 7 1024.1 1024.5 0.0
27/11:00pm 0.4 -2.9 -0.2 96 0.2 NE 7 9 4 5 1023.7 1024.2 0.0
27/10:30pm 0.7 -2.0 0.0 95 0.3 N 4 7 2 4 1024.1 1024.5 0.0
27/10:00pm 1.4 -0.6 0.2 92 0.5 CALM 0 6 0 3 1024.0 1024.4 0.0
27/09:30pm 1.6 -2.7 0.9 95 0.3 NNE 13 15 7 8 1023.6 1024.1 0.0
27/09:00pm 2.8 -0.1 1.5 91 0.5 NE 6 9 3 5 1023.7 1024.2 0.0
27/08:30pm 2.9 -0.6 1.1 88 0.7 NNE 9 13 5 7 1023.5 1024.0 0.0
27/08:00pm 3.7 0.4 0.4 79 1.3 NE 7 11 4 6 1023.3 1023.8 0.0
27/07:30pm 5.3 3.1 1.2 75 1.7 NNE 2 7 1 4 1023.2 1023.7 0.0
27/07:00pm 5.3 1.7 0.7 72 1.8 NNE 9 13 5 7 1022.7 1023.2 0.0
27/06:30pm 9.5 7.4 -0.9 48 4.2 CALM 0 0 0 0 1022.3 1022.7 0.0
27/06:00pm 9.4 6.0 -0.8 49 4.1 WNW 7 9 4 5 1022.3 1022.7 0.0
27/05:30pm 11.5 7.6 -1.3 41 5.2 WNW 9 11 5 6 1022.2 1022.6 0.0
27/05:00pm 13.0 7.6 -1.3 37 5.9 W 17 20 9 11 1022.1 1022.5 0.0
27/04:30pm 13.7 7.7 -2.7 32 6.6 W 19 24 10 13 1021.9 1022.3 0.0
27/04:00pm 14.2 8.6 1.5 42 5.6 W 20 26 11 14 1021.5 1022.0 0.0
27/03:30pm 14.5 9.7 2.4 44 5.5 SW 17 26 9 14 1021.5 1022.0 0.0
27/03:00pm 14.4 10.1 1.0 40 5.9 NW 13 17 7 9 1021.4 1021.9 0.0
27/02:30pm 14.8 10.3 -0.5 35 6.6 NW 13 17 7 9 1021.7 1022.1 0.0
27/02:00pm 14.3 9.6 0.9 40 5.9 WNW 15 22 8 12 1021.9 1022.3 0.0
27/01:30pm 14.1 9.7 2.7 46 5.2 NW 15 22 8 12 1022.1 1022.5 0.0
27/01:00pm 13.9 11.0 2.8 47 5.0 WNW 7 13 4 7 1022.4 1022.9 0.0
27/12:30pm 13.5 10.5 4.1 53 4.4 NW 9 19 5 10 1022.9 1023.4 0.0
27/12:00pm 13.1 9.6 3.7 53 4.3 NW 11 20 6 11 1023.4 1023.9 0.0
27/11:30am 12.1 8.6 1.4 48 4.7 NW 9 13 5 7 1023.9 1024.3 0.0
27/11:00am 11.5 8.6 1.5 50 4.3 W 6 13 3 7 1024.1 1024.5 0.0
27/10:30am 11.1 8.9 3.2 58 3.6 W 4 7 2 4 1024.2 1024.7 0.0
27/10:00am 9.4 7.1 2.9 64 2.8 SW 4 7 2 4 1024.4 1024.9 0.0
27/09:30am 8.2 7.0 4.4 77 1.7 CALM 0 0 0 0 1024.4 1024.9 0.0
27/09:00am 6.6 5.2 3.4 80 1.4 CALM 0 0 0 0 1024.3 1024.8 0.0
27/08:30am 5.1 3.6 3.1 87 0.8 CALM 0 0 0 0 1024.1 1024.5 0.0
27/08:00am 3.2 1.6 2.2 93 0.4 CALM 0 0 0 0 1024.0 1024.4 0.0
27/07:30am 0.9 -1.8 0.6 98 0.1 N 4 7 2 4 1023.7 1024.2 0.0
27/07:00am 0.0 -2.8 -0.3 98 0.1 ENE 4 7 2 4 1023.4 1023.9 0.0
27/06:30am -1.0 -3.2 -1.3 98 0.1 CALM 0 0 0 0 1023.0 1023.5 0.0
27/06:00am -1.3 -3.5 -1.6 98 0.0 CALM 0 4 0 2 1022.8 1023.3 0.0
27/05:30am -1.6 -4.6 -1.9 98 0.0 NNW 4 6 2 3 1022.7 1023.2 0.0
27/05:00am -1.2 -4.7 -1.5 98 0.0 NE 7 11 4 6 1022.2 1022.6 0.0
27/04:30am -0.6 -4.4 -0.9 98 0.1 NE 9 9 5 5 1021.9 1022.3 0.0
27/04:00am -0.5 -3.4 -0.8 98 0.1 NE 4 9 2 5 1021.8 1022.2 0.0
27/03:30am -0.6 -4.1 -1.0 97 0.1 NE 7 9 4 5 1021.5 1022.0 0.0
27/03:00am 0.7 -2.6 0.4 98 0.1 NNE 7 7 4 4 1021.8 1022.2 0.0
27/02:30am 0.2 -3.1 -0.1 98 0.1 NNE 7 9 4 5 1021.9 1022.3 0.0
27/02:00am 1.5 -1.4 1.2 98 0.1 ESE 6 7 3 4 1021.7 1022.1 0.0
27/01:30am 1.0 -0.9 0.6 97 0.2 CALM 0 6 0 3 1022.0 1022.4 0.0
27/01:00am 1.3 -1.7 0.9 97 0.2 NNE 6 9 3 5 1022.2 1022.6 0.0
27/12:30am 1.1 -2.9 0.7 97 0.2 NNE 11 13 6 7 1022.0 1022.4 0.0
27/12:00am 1.3 -1.9 0.7 96 0.2 NE 7 11 4 6 1021.9 1022.3 0.0
 
Date/Time
EST
Temp
°C
App
Temp
°C
Dew
Point
°C
Rel
Hum
%
Delta-T
°C
Wind Press
QNH
hPa
Press
MSL
hPa
Rain since
9am
mm
Dir  Spd
km/h
Gust
km/h
Spd
kts
Gust
kts
26/11:30pm 2.9 0.4 1.3 89 0.6 N 4 7 2 4 1021.9 1022.3 0.0
26/11:00pm 5.1 2.5 1.2 76 1.6 WSW 4 9 2 5 1021.9 1022.3 0.0
26/10:30pm 3.5 0.5 0.6 81 1.1 W 6 9 3 5 1021.7 1022.1 0.0
26/10:00pm 5.0 3.2 0.9 75 1.6 CALM 0 0 0 0 1021.4 1021.9 0.0
26/09:30pm 6.7 3.2 1.2 68 2.3 S 9 11 5 6 1021.3 1021.8 0.0
26/09:00pm 7.2 5.4 1.1 65 2.5 CALM 0 0 0 0 1021.1 1021.6 0.0
26/08:30pm 8.3 5.2 1.2 61 3.0 S 7 9 4 5 1020.9 1021.4 0.0
26/08:00pm 8.8 4.6 1.5 60 3.1 S 13 15 7 8 1020.7 1021.2 0.0
26/07:30pm 8.7 5.0 2.1 63 2.8 SW 11 17 6 9 1020.5 1020.9 0.0

Other Formats:

Comma delimited format used in spreadsheet applications
http://www.bom.gov.au/fwo/IDN60801/IDN60801.94727.axf

JavaScript Object Notation format (JSON) in row-major order
http://www.bom.gov.au/fwo/IDN60801/IDN60801.94727.json